Terminal Aerodrome Forecast
Issued by NWS

Home | Current Version | Previous Version | Text Only | Print | Product List | Glossary On
Versions: 1 2 3 4 5 6 7 8 9 10 11 12 13 14 15 16 17
000
FTAK31 PANC 252351 AAA
TAFADU
TAF AMD
PADU 252351Z 2600/2624 35012KT 3SM -RA BR SCT003 BKN006 OVC010
      TEMPO 2600/2603 2SM -RA BR SCT003 BKN006 OVC010
     FM260300 33010KT 2SM -RA BR SCT003 OVC007
     FM261100 33009KT 5SM -SHRA BR SCT007 OVC015
     FM262000 01008KT 6SM -SHRA BR BKN015 OVC025=

USA.gov is the U.S. government's official web portal to all federal, state and local government web resources and services.